sensor_id;sensor_type;location;lat;lon;timestamp;P1;durP1;ratioP1;P2;durP2;ratioP2
30398;SDS011;17195;50.838;7.214;2022-09-23T00:00:33;2.55;;;1.60;;
30398;SDS011;17195;50.838;7.214;2022-09-23T00:03:00;5.18;;;2.00;;
30398;SDS011;17195;50.838;7.214;2022-09-23T00:05:26;2.97;;;1.55;;
30398;SDS011;17195;50.838;7.214;2022-09-23T00:07:52;6.90;;;1.60;;
30398;SDS011;17195;50.838;7.214;2022-09-23T00:10:19;2.10;;;1.80;;
30398;SDS011;17195;50.838;7.214;2022-09-23T00:12:45;5.20;;;1.73;;
30398;SDS011;17195;50.838;7.214;2022-09-23T00:15:10;4.53;;;1.48;;
30398;SDS011;17195;50.838;7.214;2022-09-23T00:17:36;4.72;;;1.65;;
30398;SDS011;17195;50.838;7.214;2022-09-23T00:20:02;4.43;;;1.50;;
30398;SDS011;17195;50.838;7.214;2022-09-23T00:22:28;2.55;;;1.60;;
30398;SDS011;17195;50.838;7.214;2022-09-23T00:24:53;2.95;;;1.80;;
30398;SDS011;17195;50.838;7.214;2022-09-23T00:27:19;2.75;;;1.83;;
30398;SDS011;17195;50.838;7.214;2022-09-23T00:29:45;2.10;;;1.30;;
30398;SDS011;17195;50.838;7.214;2022-09-23T00:32:12;2.85;;;1.55;;
30398;SDS011;17195;50.838;7.214;2022-09-23T00:34:39;2.92;;;1.50;;
30398;SDS011;17195;50.838;7.214;2022-09-23T00:37:04;2.08;;;1.60;;
30398;SDS011;17195;50.838;7.214;2022-09-23T00:39:30;6.07;;;1.80;;
30398;SDS011;17195;50.838;7.214;2022-09-23T00:41:56;5.68;;;1.63;;
30398;SDS011;17195;50.838;7.214;2022-09-23T00:44:38;3.28;;;1.90;;
30398;SDS011;17195;50.838;7.214;2022-09-23T00:49:48;2.10;;;1.40;;
30398;SDS011;17195;50.838;7.214;2022-09-23T00:52:29;4.78;;;1.73;;
30398;SDS011;17195;50.838;7.214;2022-09-23T00:54:56;2.72;;;1.40;;
30398;SDS011;17195;50.838;7.214;2022-09-23T00:57:23;3.63;;;1.42;;
30398;SDS011;17195;50.838;7.214;2022-09-23T00:59:51;4.20;;;1.50;;
30398;SDS011;17195;50.838;7.214;2022-09-23T01:02:17;2.88;;;1.48;;
30398;SDS011;17195;50.838;7.214;2022-09-23T01:04:45;6.68;;;1.50;;
30398;SDS011;17195;50.838;7.214;2022-09-23T01:07:13;1.60;;;1.50;;
30398;SDS011;17195;50.838;7.214;2022-09-23T01:09:38;2.35;;;1.40;;
30398;SDS011;17195;50.838;7.214;2022-09-23T01:14:51;6.30;;;1.67;;
30398;SDS011;17195;50.838;7.214;2022-09-23T01:20:18;4.10;;;1.65;;
30398;SDS011;17195;50.838;7.214;2022-09-23T01:34:27;3.00;;;1.42;;
30398;SDS011;17195;50.838;7.214;2022-09-23T01:36:54;4.30;;;1.60;;
30398;SDS011;17195;50.838;7.214;2022-09-23T01:39:33;4.28;;;1.98;;
30398;SDS011;17195;50.838;7.214;2022-09-23T01:44:55;4.07;;;1.80;;
30398;SDS011;17195;50.838;7.214;2022-09-23T01:47:29;4.03;;;1.65;;
30398;SDS011;17195;50.838;7.214;2022-09-23T01:50:00;2.88;;;1.77;;
30398;SDS011;17195;50.838;7.214;2022-09-23T01:52:52;1.83;;;1.55;;
30398;SDS011;17195;50.838;7.214;2022-09-23T01:55:22;2.75;;;1.60;;
30398;SDS011;17195;50.838;7.214;2022-09-23T01:58:02;2.85;;;1.50;;
30398;SDS011;17195;50.838;7.214;2022-09-23T02:00:40;1.42;;;1.33;;
30398;SDS011;17195;50.838;7.214;2022-09-23T02:03:17;3.00;;;1.53;;
30398;SDS011;17195;50.838;7.214;2022-09-23T02:06:01;3.85;;;1.80;;
30398;SDS011;17195;50.838;7.214;2022-09-23T02:08:33;1.75;;;1.52;;
30398;SDS011;17195;50.838;7.214;2022-09-23T02:11:11;2.38;;;1.70;;
30398;SDS011;17195;50.838;7.214;2022-09-23T02:13:52;5.15;;;1.80;;
30398;SDS011;17195;50.838;7.214;2022-09-23T02:21:34;2.55;;;1.40;;
30398;SDS011;17195;50.838;7.214;2022-09-23T02:24:06;5.00;;;1.90;;
30398;SDS011;17195;50.838;7.214;2022-09-23T02:26:52;2.67;;;1.80;;
30398;SDS011;17195;50.838;7.214;2022-09-23T02:29:33;4.57;;;1.85;;
30398;SDS011;17195;50.838;7.214;2022-09-23T02:43:06;5.80;;;1.50;;
30398;SDS011;17195;50.838;7.214;2022-09-23T02:45:36;1.90;;;1.35;;
30398;SDS011;17195;50.838;7.214;2022-09-23T02:48:04;3.10;;;1.50;;
30398;SDS011;17195;50.838;7.214;2022-09-23T02:50:33;2.67;;;1.60;;
30398;SDS011;17195;50.838;7.214;2022-09-23T02:52:59;2.88;;;1.55;;
30398;SDS011;17195;50.838;7.214;2022-09-23T02:55:26;4.95;;;1.40;;
30398;SDS011;17195;50.838;7.214;2022-09-23T02:57:55;3.13;;;1.77;;
30398;SDS011;17195;50.838;7.214;2022-09-23T03:00:26;3.10;;;1.40;;
30398;SDS011;17195;50.838;7.214;2022-09-23T03:03:14;5.38;;;1.75;;
30398;SDS011;17195;50.838;7.214;2022-09-23T03:05:55;2.55;;;1.88;;
30398;SDS011;17195;50.838;7.214;2022-09-23T03:16:52;5.60;;;1.80;;
30398;SDS011;17195;50.838;7.214;2022-09-23T03:19:27;1.98;;;1.60;;
30398;SDS011;17195;50.838;7.214;2022-09-23T03:22:02;2.83;;;1.58;;
30398;SDS011;17195;50.838;7.214;2022-09-23T03:24:32;2.80;;;1.70;;
30398;SDS011;17195;50.838;7.214;2022-09-23T03:27:02;3.75;;;1.58;;
30398;SDS011;17195;50.838;7.214;2022-09-23T03:29:32;2.95;;;1.90;;
30398;SDS011;17195;50.838;7.214;2022-09-23T03:32:01;4.30;;;1.75;;
30398;SDS011;17195;50.838;7.214;2022-09-23T03:34:30;4.75;;;2.17;;
30398;SDS011;17195;50.838;7.214;2022-09-23T03:37:01;2.47;;;2.00;;
30398;SDS011;17195;50.838;7.214;2022-09-23T03:39:38;3.58;;;2.20;;
30398;SDS011;17195;50.838;7.214;2022-09-23T03:42:19;3.47;;;2.15;;
30398;SDS011;17195;50.838;7.214;2022-09-23T03:44:54;3.60;;;2.30;;
30398;SDS011;17195;50.838;7.214;2022-09-23T03:47:25;4.05;;;2.20;;
30398;SDS011;17195;50.838;7.214;2022-09-23T03:49:52;6.13;;;2.25;;
30398;SDS011;17195;50.838;7.214;2022-09-23T03:52:20;3.00;;;2.13;;
30398;SDS011;17195;50.838;7.214;2022-09-23T03:54:47;2.90;;;2.08;;
30398;SDS011;17195;50.838;7.214;2022-09-23T03:57:13;4.22;;;2.10;;
30398;SDS011;17195;50.838;7.214;2022-09-23T03:59:38;3.80;;;2.17;;
30398;SDS011;17195;50.838;7.214;2022-09-23T04:02:04;3.85;;;2.20;;
30398;SDS011;17195;50.838;7.214;2022-09-23T04:04:31;2.47;;;2.00;;
30398;SDS011;17195;50.838;7.214;2022-09-23T04:07:00;3.03;;;2.50;;
30398;SDS011;17195;50.838;7.214;2022-09-23T04:09:26;2.97;;;2.70;;
30398;SDS011;17195;50.838;7.214;2022-09-23T04:11:52;3.58;;;2.30;;
30398;SDS011;17195;50.838;7.214;2022-09-23T04:14:18;4.25;;;2.53;;
30398;SDS011;17195;50.838;7.214;2022-09-23T04:16:45;3.92;;;2.50;;
30398;SDS011;17195;50.838;7.214;2022-09-23T04:19:12;3.45;;;2.30;;
30398;SDS011;17195;50.838;7.214;2022-09-23T04:21:38;5.53;;;2.30;;
30398;SDS011;17195;50.838;7.214;2022-09-23T04:24:05;4.50;;;2.60;;
30398;SDS011;17195;50.838;7.214;2022-09-23T04:26:31;4.75;;;2.53;;
30398;SDS011;17195;50.838;7.214;2022-09-23T04:28:57;3.30;;;2.45;;
30398;SDS011;17195;50.838;7.214;2022-09-23T04:31:22;14.57;;;3.10;;
30398;SDS011;17195;50.838;7.214;2022-09-23T04:33:48;7.63;;;3.20;;
30398;SDS011;17195;50.838;7.214;2022-09-23T04:36:15;3.72;;;2.60;;
30398;SDS011;17195;50.838;7.214;2022-09-23T04:38:44;6.38;;;2.50;;
30398;SDS011;17195;50.838;7.214;2022-09-23T04:41:10;4.18;;;2.30;;
30398;SDS011;17195;50.838;7.214;2022-09-23T04:43:36;3.75;;;2.50;;
30398;SDS011;17195;50.838;7.214;2022-09-23T04:46:04;4.47;;;2.53;;
30398;SDS011;17195;50.838;7.214;2022-09-23T04:48:31;7.80;;;2.15;;
30398;SDS011;17195;50.838;7.214;2022-09-23T04:51:07;4.03;;;2.25;;
30398;SDS011;17195;50.838;7.214;2022-09-23T04:53:35;2.42;;;1.80;;
30398;SDS011;17195;50.838;7.214;2022-09-23T04:56:02;4.22;;;2.10;;
30398;SDS011;17195;50.838;7.214;2022-09-23T04:58:29;3.30;;;2.55;;
30398;SDS011;17195;50.838;7.214;2022-09-23T05:00:55;2.42;;;2.15;;
30398;SDS011;17195;50.838;7.214;2022-09-23T05:03:23;2.33;;;2.10;;
30398;SDS011;17195;50.838;7.214;2022-09-23T05:05:49;3.17;;;2.03;;
30398;SDS011;17195;50.838;7.214;2022-09-23T05:08:15;4.40;;;2.20;;
30398;SDS011;17195;50.838;7.214;2022-09-23T05:10:41;4.55;;;2.05;;
30398;SDS011;17195;50.838;7.214;2022-09-23T05:13:06;6.25;;;2.33;;
30398;SDS011;17195;50.838;7.214;2022-09-23T05:15:33;2.50;;;2.28;;
30398;SDS011;17195;50.838;7.214;2022-09-23T05:17:58;6.82;;;2.55;;
30398;SDS011;17195;50.838;7.214;2022-09-23T05:20:24;3.22;;;2.00;;
30398;SDS011;17195;50.838;7.214;2022-09-23T05:22:50;3.10;;;2.30;;
30398;SDS011;17195;50.838;7.214;2022-09-23T05:25:19;3.05;;;1.88;;
30398;SDS011;17195;50.838;7.214;2022-09-23T05:27:47;3.72;;;2.40;;
30398;SDS011;17195;50.838;7.214;2022-09-23T05:30:13;3.55;;;2.38;;
30398;SDS011;17195;50.838;7.214;2022-09-23T05:32:38;3.78;;;2.40;;
30398;SDS011;17195;50.838;7.214;2022-09-23T05:35:04;5.78;;;2.30;;
30398;SDS011;17195;50.838;7.214;2022-09-23T05:37:30;4.38;;;2.90;;
30398;SDS011;17195;50.838;7.214;2022-09-23T05:39:57;3.60;;;2.92;;
30398;SDS011;17195;50.838;7.214;2022-09-23T05:42:22;5.13;;;2.90;;
30398;SDS011;17195;50.838;7.214;2022-09-23T05:44:48;5.10;;;2.78;;
30398;SDS011;17195;50.838;7.214;2022-09-23T05:47:13;6.68;;;3.10;;
30398;SDS011;17195;50.838;7.214;2022-09-23T05:49:39;4.10;;;2.35;;
30398;SDS011;17195;50.838;7.214;2022-09-23T05:52:05;7.38;;;3.08;;
30398;SDS011;17195;50.838;7.214;2022-09-23T05:54:30;3.75;;;2.45;;
30398;SDS011;17195;50.838;7.214;2022-09-23T05:56:56;3.08;;;2.35;;
30398;SDS011;17195;50.838;7.214;2022-09-23T05:59:22;4.50;;;2.67;;
30398;SDS011;17195;50.838;7.214;2022-09-23T06:01:47;5.05;;;2.40;;
30398;SDS011;17195;50.838;7.214;2022-09-23T06:04:13;5.72;;;2.47;;
30398;SDS011;17195;50.838;7.214;2022-09-23T06:06:39;5.53;;;3.42;;
30398;SDS011;17195;50.838;7.214;2022-09-23T06:09:07;5.43;;;3.45;;
30398;SDS011;17195;50.838;7.214;2022-09-23T06:11:35;8.40;;;4.60;;
30398;SDS011;17195;50.838;7.214;2022-09-23T06:14:01;10.82;;;5.05;;
30398;SDS011;17195;50.838;7.214;2022-09-23T06:16:28;7.72;;;4.25;;
30398;SDS011;17195;50.838;7.214;2022-09-23T06:18:55;5.07;;;3.50;;
30398;SDS011;17195;50.838;7.214;2022-09-23T06:21:20;7.13;;;4.55;;
30398;SDS011;17195;50.838;7.214;2022-09-23T06:23:46;7.25;;;4.97;;
30398;SDS011;17195;50.838;7.214;2022-09-23T06:26:13;6.60;;;4.78;;
30398;SDS011;17195;50.838;7.214;2022-09-23T06:28:41;5.90;;;4.70;;
30398;SDS011;17195;50.838;7.214;2022-09-23T06:31:09;7.25;;;4.13;;
30398;SDS011;17195;50.838;7.214;2022-09-23T06:33:37;3.90;;;3.50;;
30398;SDS011;17195;50.838;7.214;2022-09-23T06:36:04;4.30;;;3.30;;
30398;SDS011;17195;50.838;7.214;2022-09-23T06:38:31;4.28;;;3.88;;
30398;SDS011;17195;50.838;7.214;2022-09-23T06:41:00;7.05;;;3.90;;
30398;SDS011;17195;50.838;7.214;2022-09-23T06:43:27;4.15;;;3.78;;
30398;SDS011;17195;50.838;7.214;2022-09-23T06:45:53;4.22;;;3.67;;
30398;SDS011;17195;50.838;7.214;2022-09-23T06:48:26;5.53;;;3.72;;
30398;SDS011;17195;50.838;7.214;2022-09-23T06:50:52;5.18;;;3.63;;
30398;SDS011;17195;50.838;7.214;2022-09-23T06:53:18;4.55;;;3.90;;
30398;SDS011;17195;50.838;7.214;2022-09-23T06:55:47;5.90;;;3.40;;
30398;SDS011;17195;50.838;7.214;2022-09-23T06:58:13;8.18;;;3.15;;
30398;SDS011;17195;50.838;7.214;2022-09-23T07:00:39;5.30;;;3.20;;
30398;SDS011;17195;50.838;7.214;2022-09-23T07:03:08;3.55;;;2.90;;
30398;SDS011;17195;50.838;7.214;2022-09-23T07:05:34;4.15;;;3.33;;
30398;SDS011;17195;50.838;7.214;2022-09-23T07:08:00;5.95;;;3.80;;
30398;SDS011;17195;50.838;7.214;2022-09-23T07:10:25;5.32;;;3.20;;
30398;SDS011;17195;50.838;7.214;2022-09-23T07:12:53;5.82;;;3.78;;
30398;SDS011;17195;50.838;7.214;2022-09-23T07:15:19;4.05;;;3.38;;
30398;SDS011;17195;50.838;7.214;2022-09-23T07:17:44;6.03;;;3.88;;
30398;SDS011;17195;50.838;7.214;2022-09-23T07:20:10;7.45;;;3.95;;
30398;SDS011;17195;50.838;7.214;2022-09-23T07:22:36;9.30;;;4.53;;
30398;SDS011;17195;50.838;7.214;2022-09-23T07:25:02;5.80;;;4.10;;
30398;SDS011;17195;50.838;7.214;2022-09-23T07:27:28;5.30;;;3.75;;
30398;SDS011;17195;50.838;7.214;2022-09-23T07:29:54;10.30;;;4.00;;
30398;SDS011;17195;50.838;7.214;2022-09-23T07:32:20;5.78;;;3.65;;
30398;SDS011;17195;50.838;7.214;2022-09-23T07:34:46;4.38;;;3.50;;
30398;SDS011;17195;50.838;7.214;2022-09-23T07:37:13;7.35;;;3.70;;
30398;SDS011;17195;50.838;7.214;2022-09-23T07:39:39;6.97;;;3.83;;
30398;SDS011;17195;50.838;7.214;2022-09-23T07:42:05;4.30;;;3.58;;
30398;SDS011;17195;50.838;7.214;2022-09-23T07:44:31;5.53;;;3.60;;
30398;SDS011;17195;50.838;7.214;2022-09-23T07:46:57;13.10;;;8.02;;
30398;SDS011;17195;50.838;7.214;2022-09-23T07:49:24;7.72;;;5.45;;
30398;SDS011;17195;50.838;7.214;2022-09-23T07:51:50;14.05;;;9.23;;
30398;SDS011;17195;50.838;7.214;2022-09-23T07:54:17;5.93;;;3.90;;
30398;SDS011;17195;50.838;7.214;2022-09-23T07:56:43;135.00;;;47.80;;
30398;SDS011;17195;50.838;7.214;2022-09-23T07:59:14;119.70;;;46.55;;
30398;SDS011;17195;50.838;7.214;2022-09-23T08:01:42;103.28;;;37.08;;
30398;SDS011;17195;50.838;7.214;2022-09-23T08:04:43;116.38;;;48.35;;
30398;SDS011;17195;50.838;7.214;2022-09-23T08:07:03;110.97;;;57.33;;
30398;SDS011;17195;50.838;7.214;2022-09-23T08:09:33;44.15;;;28.48;;
30398;SDS011;17195;50.838;7.214;2022-09-23T08:12:05;6.93;;;3.97;;
30398;SDS011;17195;50.838;7.214;2022-09-23T08:14:32;13.52;;;4.50;;
30398;SDS011;17195;50.838;7.214;2022-09-23T08:16:57;5.63;;;2.70;;
30398;SDS011;17195;50.838;7.214;2022-09-23T08:19:23;5.25;;;2.22;;
30398;SDS011;17195;50.838;7.214;2022-09-23T08:21:49;2.95;;;1.83;;
30398;SDS011;17195;50.838;7.214;2022-09-23T08:24:19;2.15;;;1.88;;
30398;SDS011;17195;50.838;7.214;2022-09-23T08:26:48;6.47;;;3.30;;
30398;SDS011;17195;50.838;7.214;2022-09-23T08:29:17;3.80;;;2.10;;
30398;SDS011;17195;50.838;7.214;2022-09-23T08:31:47;3.05;;;1.90;;
30398;SDS011;17195;50.838;7.214;2022-09-23T08:34:14;4.63;;;2.05;;
30398;SDS011;17195;50.838;7.214;2022-09-23T08:36:43;3.83;;;1.83;;
30398;SDS011;17195;50.838;7.214;2022-09-23T08:39:14;3.05;;;2.28;;
30398;SDS011;17195;50.838;7.214;2022-09-23T08:44:46;2.90;;;1.90;;
30398;SDS011;17195;50.838;7.214;2022-09-23T08:47:24;3.53;;;2.30;;
30398;SDS011;17195;50.838;7.214;2022-09-23T08:52:39;4.47;;;2.00;;
30398;SDS011;17195;50.838;7.214;2022-09-23T08:55:12;5.78;;;3.08;;
30398;SDS011;17195;50.838;7.214;2022-09-23T08:57:42;4.18;;;2.10;;
30398;SDS011;17195;50.838;7.214;2022-09-23T09:00:22;4.82;;;1.83;;
30398;SDS011;17195;50.838;7.214;2022-09-23T09:02:55;3.35;;;1.70;;
30398;SDS011;17195;50.838;7.214;2022-09-23T09:05:23;2.15;;;1.70;;
30398;SDS011;17195;50.838;7.214;2022-09-23T09:07:51;2.00;;;1.55;;
30398;SDS011;17195;50.838;7.214;2022-09-23T09:10:22;6.72;;;1.95;;
30398;SDS011;17195;50.838;7.214;2022-09-23T09:13:00;2.30;;;1.42;;
30398;SDS011;17195;50.838;7.214;2022-09-23T09:15:31;4.85;;;2.00;;
30398;SDS011;17195;50.838;7.214;2022-09-23T09:18:19;3.05;;;1.90;;
30398;SDS011;17195;50.838;7.214;2022-09-23T09:26:02;2.25;;;1.70;;
30398;SDS011;17195;50.838;7.214;2022-09-23T09:28:34;3.90;;;1.55;;
30398;SDS011;17195;50.838;7.214;2022-09-23T09:34:01;8.45;;;6.85;;
30398;SDS011;17195;50.838;7.214;2022-09-23T09:39:47;3.40;;;2.42;;
30398;SDS011;17195;50.838;7.214;2022-09-23T09:42:18;7.22;;;2.20;;
30398;SDS011;17195;50.838;7.214;2022-09-23T09:44:54;3.42;;;1.77;;
30398;SDS011;17195;50.838;7.214;2022-09-23T09:47:33;3.25;;;1.63;;
30398;SDS011;17195;50.838;7.214;2022-09-23T09:50:18;4.07;;;2.00;;
30398;SDS011;17195;50.838;7.214;2022-09-23T09:53:40;2.40;;;1.75;;
30398;SDS011;17195;50.838;7.214;2022-09-23T09:56:06;2.45;;;1.70;;
30398;SDS011;17195;50.838;7.214;2022-09-23T10:01:16;3.58;;;1.80;;
30398;SDS011;17195;50.838;7.214;2022-09-23T10:06:13;3.15;;;1.90;;
30398;SDS011;17195;50.838;7.214;2022-09-23T10:08:40;4.43;;;1.85;;
30398;SDS011;17195;50.838;7.214;2022-09-23T10:11:17;4.78;;;2.75;;
30398;SDS011;17195;50.838;7.214;2022-09-23T10:16:27;5.97;;;2.03;;
30398;SDS011;17195;50.838;7.214;2022-09-23T10:18:55;3.95;;;1.77;;
30398;SDS011;17195;50.838;7.214;2022-09-23T10:21:24;2.92;;;1.58;;
30398;SDS011;17195;50.838;7.214;2022-09-23T10:24:00;3.45;;;1.88;;
30398;SDS011;17195;50.838;7.214;2022-09-23T10:26:32;3.60;;;1.70;;
30398;SDS011;17195;50.838;7.214;2022-09-23T10:29:02;2.75;;;1.70;;
30398;SDS011;17195;50.838;7.214;2022-09-23T10:31:43;6.20;;;1.88;;
30398;SDS011;17195;50.838;7.214;2022-09-23T10:34:22;1.63;;;1.52;;
30398;SDS011;17195;50.838;7.214;2022-09-23T10:37:00;4.85;;;2.00;;
30398;SDS011;17195;50.838;7.214;2022-09-23T10:39:29;19.90;;;13.25;;
30398;SDS011;17195;50.838;7.214;2022-09-23T10:42:20;3.15;;;2.17;;
30398;SDS011;17195;50.838;7.214;2022-09-23T10:45:25;3.58;;;1.45;;
30398;SDS011;17195;50.838;7.214;2022-09-23T10:48:24;4.55;;;1.60;;
30398;SDS011;17195;50.838;7.214;2022-09-23T10:50:52;4.20;;;1.80;;
30398;SDS011;17195;50.838;7.214;2022-09-23T10:53:42;2.40;;;1.38;;
30398;SDS011;17195;50.838;7.214;2022-09-23T10:56:24;5.65;;;2.75;;
30398;SDS011;17195;50.838;7.214;2022-09-23T10:59:01;3.33;;;1.50;;
30398;SDS011;17195;50.838;7.214;2022-09-23T11:13:00;1.58;;;1.40;;
30398;SDS011;17195;50.838;7.214;2022-09-23T11:15:46;4.10;;;1.60;;
30398;SDS011;17195;50.838;7.214;2022-09-23T11:21:16;2.60;;;1.77;;
30398;SDS011;17195;50.838;7.214;2022-09-23T11:27:14;2.35;;;1.10;;
30398;SDS011;17195;50.838;7.214;2022-09-23T11:30:02;3.45;;;1.33;;
30398;SDS011;17195;50.838;7.214;2022-09-23T11:35:32;1.65;;;1.15;;
30398;SDS011;17195;50.838;7.214;2022-09-23T11:38:14;2.40;;;1.17;;
30398;SDS011;17195;50.838;7.214;2022-09-23T11:40:50;2.42;;;1.30;;
30398;SDS011;17195;50.838;7.214;2022-09-23T11:43:26;2.15;;;1.30;;
30398;SDS011;17195;50.838;7.214;2022-09-23T11:46:04;1.95;;;1.00;;
30398;SDS011;17195;50.838;7.214;2022-09-23T11:48:39;4.60;;;1.70;;
30398;SDS011;17195;50.838;7.214;2022-09-23T11:51:14;2.63;;;1.40;;
30398;SDS011;17195;50.838;7.214;2022-09-23T11:56:35;1.10;;;0.90;;
30398;SDS011;17195;50.838;7.214;2022-09-23T12:02:03;2.03;;;0.90;;
30398;SDS011;17195;50.838;7.214;2022-09-23T12:04:56;1.27;;;0.93;;
30398;SDS011;17195;50.838;7.214;2022-09-23T12:07:28;1.88;;;0.90;;
30398;SDS011;17195;50.838;7.214;2022-09-23T12:10:20;2.03;;;0.75;;
30398;SDS011;17195;50.838;7.214;2022-09-23T12:13:04;2.33;;;0.70;;
30398;SDS011;17195;50.838;7.214;2022-09-23T12:18:34;2.13;;;1.00;;
30398;SDS011;17195;50.838;7.214;2022-09-23T12:27:34;2.38;;;0.80;;
30398;SDS011;17195;50.838;7.214;2022-09-23T12:32:35;1.38;;;0.90;;
30398;SDS011;17195;50.838;7.214;2022-09-23T12:35:02;1.48;;;0.80;;
30398;SDS011;17195;50.838;7.214;2022-09-23T12:37:32;4.55;;;1.20;;
30398;SDS011;17195;50.838;7.214;2022-09-23T12:40:01;1.02;;;0.70;;
30398;SDS011;17195;50.838;7.214;2022-09-23T12:42:31;1.60;;;0.90;;
30398;SDS011;17195;50.838;7.214;2022-09-23T12:45:17;1.55;;;0.70;;
30398;SDS011;17195;50.838;7.214;2022-09-23T12:48:23;0.95;;;0.68;;
30398;SDS011;17195;50.838;7.214;2022-09-23T13:01:47;2.08;;;0.80;;
30398;SDS011;17195;50.838;7.214;2022-09-23T13:07:46;1.42;;;1.00;;
30398;SDS011;17195;50.838;7.214;2022-09-23T13:12:39;1.85;;;0.80;;
30398;SDS011;17195;50.838;7.214;2022-09-23T13:15:14;1.48;;;1.00;;
30398;SDS011;17195;50.838;7.214;2022-09-23T13:20:45;2.63;;;1.15;;
30398;SDS011;17195;50.838;7.214;2022-09-23T13:23:21;1.48;;;0.90;;
30398;SDS011;17195;50.838;7.214;2022-09-23T13:25:47;1.92;;;0.80;;
30398;SDS011;17195;50.838;7.214;2022-09-23T13:31:28;1.15;;;0.82;;
30398;SDS011;17195;50.838;7.214;2022-09-23T13:33:55;2.28;;;1.00;;
30398;SDS011;17195;50.838;7.214;2022-09-23T13:36:25;2.65;;;0.88;;
30398;SDS011;17195;50.838;7.214;2022-09-23T13:38:51;3.08;;;1.25;;
30398;SDS011;17195;50.838;7.214;2022-09-23T13:41:18;3.63;;;2.15;;
30398;SDS011;17195;50.838;7.214;2022-09-23T13:43:48;1.25;;;1.10;;
30398;SDS011;17195;50.838;7.214;2022-09-23T13:46:19;2.15;;;1.00;;
30398;SDS011;17195;50.838;7.214;2022-09-23T13:48:47;1.60;;;0.80;;
30398;SDS011;17195;50.838;7.214;2022-09-23T13:51:26;0.80;;;0.73;;
30398;SDS011;17195;50.838;7.214;2022-09-23T13:53:55;2.20;;;0.85;;
30398;SDS011;17195;50.838;7.214;2022-09-23T13:56:24;0.85;;;0.70;;
30398;SDS011;17195;50.838;7.214;2022-09-23T13:58:51;1.35;;;1.02;;
30398;SDS011;17195;50.838;7.214;2022-09-23T14:01:30;2.15;;;1.00;;
30398;SDS011;17195;50.838;7.214;2022-09-23T14:03:58;5.07;;;1.13;;
30398;SDS011;17195;50.838;7.214;2022-09-23T14:06:24;2.17;;;1.00;;
30398;SDS011;17195;50.838;7.214;2022-09-23T14:08:53;1.30;;;0.98;;
30398;SDS011;17195;50.838;7.214;2022-09-23T14:11:21;2.95;;;1.20;;
30398;SDS011;17195;50.838;7.214;2022-09-23T14:13:53;1.38;;;0.95;;
30398;SDS011;17195;50.838;7.214;2022-09-23T14:16:19;2.65;;;0.80;;
30398;SDS011;17195;50.838;7.214;2022-09-23T14:18:49;2.50;;;1.00;;
30398;SDS011;17195;50.838;7.214;2022-09-23T14:21:34;3.08;;;1.00;;
30398;SDS011;17195;50.838;7.214;2022-09-23T14:29:38;1.15;;;0.75;;
30398;SDS011;17195;50.838;7.214;2022-09-23T14:32:12;1.85;;;0.90;;
30398;SDS011;17195;50.838;7.214;2022-09-23T14:37:59;0.95;;;0.88;;
30398;SDS011;17195;50.838;7.214;2022-09-23T14:40:54;2.75;;;1.23;;
30398;SDS011;17195;50.838;7.214;2022-09-23T14:46:16;2.03;;;0.80;;
30398;SDS011;17195;50.838;7.214;2022-09-23T14:48:49;2.70;;;1.10;;
30398;SDS011;17195;50.838;7.214;2022-09-23T14:51:18;3.28;;;1.20;;
30398;SDS011;17195;50.838;7.214;2022-09-23T14:53:44;1.92;;;0.90;;
30398;SDS011;17195;50.838;7.214;2022-09-23T14:56:17;1.80;;;1.10;;
30398;SDS011;17195;50.838;7.214;2022-09-23T14:58:45;2.25;;;0.93;;
30398;SDS011;17195;50.838;7.214;2022-09-23T15:01:33;2.25;;;1.10;;
30398;SDS011;17195;50.838;7.214;2022-09-23T15:04:11;6.32;;;1.40;;
30398;SDS011;17195;50.838;7.214;2022-09-23T15:06:43;1.80;;;1.10;;
30398;SDS011;17195;50.838;7.214;2022-09-23T15:09:34;1.42;;;0.82;;
30398;SDS011;17195;50.838;7.214;2022-09-23T15:12:06;1.63;;;1.10;;
30398;SDS011;17195;50.838;7.214;2022-09-23T15:14:45;2.75;;;0.90;;
30398;SDS011;17195;50.838;7.214;2022-09-23T15:17:26;1.95;;;1.10;;
30398;SDS011;17195;50.838;7.214;2022-09-23T15:19:58;2.08;;;1.20;;
30398;SDS011;17195;50.838;7.214;2022-09-23T15:22:26;3.20;;;1.45;;
30398;SDS011;17195;50.838;7.214;2022-09-23T15:24:53;1.50;;;1.35;;
30398;SDS011;17195;50.838;7.214;2022-09-23T15:27:32;5.30;;;1.38;;
30398;SDS011;17195;50.838;7.214;2022-09-23T15:30:15;5.43;;;3.10;;
30398;SDS011;17195;50.838;7.214;2022-09-23T15:32:54;1.77;;;1.33;;
30398;SDS011;17195;50.838;7.214;2022-09-23T15:35:20;5.22;;;1.65;;
30398;SDS011;17195;50.838;7.214;2022-09-23T15:37:50;3.42;;;1.63;;
30398;SDS011;17195;50.838;7.214;2022-09-23T15:42:44;1.80;;;1.40;;
30398;SDS011;17195;50.838;7.214;2022-09-23T15:45:20;2.35;;;1.60;;
30398;SDS011;17195;50.838;7.214;2022-09-23T15:47:52;1.75;;;1.38;;
30398;SDS011;17195;50.838;7.214;2022-09-23T15:50:19;2.58;;;1.30;;
30398;SDS011;17195;50.838;7.214;2022-09-23T15:52:45;1.48;;;1.10;;
30398;SDS011;17195;50.838;7.214;2022-09-23T15:55:15;3.90;;;1.50;;
30398;SDS011;17195;50.838;7.214;2022-09-23T15:57:42;3.95;;;1.98;;
30398;SDS011;17195;50.838;7.214;2022-09-23T16:00:08;2.42;;;1.45;;
30398;SDS011;17195;50.838;7.214;2022-09-23T16:02:34;2.80;;;1.50;;
30398;SDS011;17195;50.838;7.214;2022-09-23T16:05:00;4.07;;;1.77;;
30398;SDS011;17195;50.838;7.214;2022-09-23T16:07:31;2.40;;;1.75;;
30398;SDS011;17195;50.838;7.214;2022-09-23T16:09:58;2.40;;;1.73;;
30398;SDS011;17195;50.838;7.214;2022-09-23T16:12:23;2.70;;;1.92;;
30398;SDS011;17195;50.838;7.214;2022-09-23T16:14:49;4.38;;;2.40;;
30398;SDS011;17195;50.838;7.214;2022-09-23T16:17:15;5.25;;;3.08;;
30398;SDS011;17195;50.838;7.214;2022-09-23T16:19:40;3.08;;;2.17;;
30398;SDS011;17195;50.838;7.214;2022-09-23T16:22:06;4.38;;;2.08;;
30398;SDS011;17195;50.838;7.214;2022-09-23T16:24:31;2.80;;;2.03;;
30398;SDS011;17195;50.838;7.214;2022-09-23T16:26:57;2.80;;;1.92;;
30398;SDS011;17195;50.838;7.214;2022-09-23T16:29:25;2.47;;;1.85;;
30398;SDS011;17195;50.838;7.214;2022-09-23T16:31:51;3.35;;;1.88;;
30398;SDS011;17195;50.838;7.214;2022-09-23T16:34:17;2.63;;;1.63;;
30398;SDS011;17195;50.838;7.214;2022-09-23T16:36:44;2.85;;;2.13;;
30398;SDS011;17195;50.838;7.214;2022-09-23T16:39:11;4.90;;;3.22;;
30398;SDS011;17195;50.838;7.214;2022-09-23T16:41:37;9.63;;;6.82;;
30398;SDS011;17195;50.838;7.214;2022-09-23T16:44:04;12.43;;;9.23;;
30398;SDS011;17195;50.838;7.214;2022-09-23T16:46:31;13.13;;;9.85;;
30398;SDS011;17195;50.838;7.214;2022-09-23T16:48:58;12.43;;;9.60;;
30398;SDS011;17195;50.838;7.214;2022-09-23T16:51:25;15.32;;;9.35;;
30398;SDS011;17195;50.838;7.214;2022-09-23T16:53:57;12.85;;;8.95;;
30398;SDS011;17195;50.838;7.214;2022-09-23T16:56:24;9.93;;;7.97;;
30398;SDS011;17195;50.838;7.214;2022-09-23T16:58:51;6.72;;;4.90;;
30398;SDS011;17195;50.838;7.214;2022-09-23T17:01:21;4.80;;;2.85;;
30398;SDS011;17195;50.838;7.214;2022-09-23T17:04:07;3.30;;;2.42;;
30398;SDS011;17195;50.838;7.214;2022-09-23T17:06:34;2.20;;;2.00;;
30398;SDS011;17195;50.838;7.214;2022-09-23T17:09:00;1.73;;;1.63;;
30398;SDS011;17195;50.838;7.214;2022-09-23T17:11:27;2.88;;;1.50;;
30398;SDS011;17195;50.838;7.214;2022-09-23T17:13:53;1.85;;;1.30;;
30398;SDS011;17195;50.838;7.214;2022-09-23T17:16:26;2.10;;;1.33;;
30398;SDS011;17195;50.838;7.214;2022-09-23T17:18:54;4.30;;;2.33;;
30398;SDS011;17195;50.838;7.214;2022-09-23T17:21:21;5.35;;;3.17;;
30398;SDS011;17195;50.838;7.214;2022-09-23T17:23:54;8.93;;;5.50;;
30398;SDS011;17195;50.838;7.214;2022-09-23T17:26:21;11.23;;;7.28;;
30398;SDS011;17195;50.838;7.214;2022-09-23T17:28:48;8.93;;;7.65;;
30398;SDS011;17195;50.838;7.214;2022-09-23T17:31:18;6.75;;;5.45;;
30398;SDS011;17195;50.838;7.214;2022-09-23T17:33:45;5.20;;;3.25;;